Time,TemperatureF,DewpointF,PressureIn,WindDirection,WindDirectionDegrees,WindSpeedMPH,WindSpeedGustMPH,Humidity,HourlyPrecipIn,Conditions,Clouds,dailyrainin,SoftwareType,DateUTC
2013-04-01 00:09:00,43.7,43.4,29.61,ESE,112,3.2,-999.0,99,-99.99,,,0.00,Acu-Link.com,2013-04-01 04:09:00,
2013-04-01 00:24:00,43.9,43.6,29.60,ESE,112,4.2,-999.0,99,-99.99,,,0.01,Acu-Link.com,2013-04-01 04:24:00,
2013-04-01 00:40:00,44.2,43.9,29.58,SSW,202,1.7,-999.0,99,-99.99,,,0.01,Acu-Link.com,2013-04-01 04:40:00,
2013-04-01 00:55:00,44.2,43.9,29.56,ENE,67,1.7,-999.0,99,-99.99,,,0.01,Acu-Link.com,2013-04-01 04:55:00,
2013-04-01 01:10:00,44.6,44.3,29.55,SE,135,3.7,-999.0,99,-99.99,,,0.01,Acu-Link.com,2013-04-01 05:10:00,
2013-04-01 01:25:00,44.6,44.3,29.53,South,180,1.7,-999.0,99,-99.99,,,0.01,Acu-Link.com,2013-04-01 05:25:00,
2013-04-01 01:40:00,44.6,44.3,29.52,ESE,112,1.7,-999.0,99,-99.99,,,0.02,Acu-Link.com,2013-04-01 05:40:00,
2013-04-01 01:56:00,44.6,44.3,29.49,SSW,202,1.7,-999.0,99,-99.99,,,0.02,Acu-Link.com,2013-04-01 05:56:00,
2013-04-01 02:11:00,44.6,44.3,29.50,West,270,0.0,-999.0,99,-99.99,,,0.03,Acu-Link.com,2013-04-01 06:11:00,
2013-04-01 02:26:00,44.8,44.5,29.48,South,180,0.0,-999.0,99,-99.99,,,0.03,Acu-Link.com,2013-04-01 06:26:00,
2013-04-01 02:41:00,44.8,44.5,29.48,East,90,0.0,-999.0,99,-99.99,,,0.03,Acu-Link.com,2013-04-01 06:41:00,
2013-04-01 02:56:00,44.8,44.5,29.48,North,0,2.2,-999.0,99,-99.99,,,0.03,Acu-Link.com,2013-04-01 06:56:00,
2013-04-01 03:12:00,44.8,44.5,29.47,NNE,22,3.2,-999.0,99,-99.99,,,0.03,Acu-Link.com,2013-04-01 07:12:00,
2013-04-01 03:27:00,44.8,44.5,29.49,ENE,67,2.7,-999.0,99,-99.99,,,0.04,Acu-Link.com,2013-04-01 07:27:00,
2013-04-01 03:42:00,44.6,44.3,29.48,WNW,292,1.7,-999.0,99,-99.99,,,0.04,Acu-Link.com,2013-04-01 07:42:00,
2013-04-01 03:57:00,44.1,43.8,29.47,North,0,2.7,-999.0,99,-99.99,,,0.04,Acu-Link.com,2013-04-01 07:57:00,
2013-04-01 04:13:00,43.9,43.6,29.47,NE,45,1.7,-999.0,99,-99.99,,,0.04,Acu-Link.com,2013-04-01 08:13:00,
2013-04-01 04:28:00,43.2,42.9,29.47,North,0,2.2,-999.0,99,-99.99,,,0.04,Acu-Link.com,2013-04-01 08:28:00,
2013-04-01 04:43:00,42.3,42.0,29.50,NE,45,1.7,-999.0,99,-99.99,,,0.04,Acu-Link.com,2013-04-01 08:43:00,
2013-04-01 04:58:00,41.9,41.6,29.50,SSW,202,2.2,-999.0,99,-99.99,,,0.04,Acu-Link.com,2013-04-01 08:58:00,
2013-04-01 05:13:00,41.9,41.6,29.51,ESE,112,3.2,-999.0,99,-99.99,,,0.04,Acu-Link.com,2013-04-01 09:13:00,
2013-04-01 05:28:00,41.7,41.4,29.52,ESE,112,2.2,-999.0,99,-99.99,,,0.04,Acu-Link.com,2013-04-01 09:28:00,
2013-04-01 05:44:00,41.7,41.4,29.53,SSW,202,2.7,-999.0,99,-99.99,,,0.04,Acu-Link.com,2013-04-01 09:44:00,
2013-04-01 05:59:00,41.7,41.4,29.53,South,180,3.2,-999.0,99,-99.99,,,0.04,Acu-Link.com,2013-04-01 09:59:00,
2013-04-01 06:14:00,41.7,41.4,29.53,West,270,2.7,-999.0,99,-99.99,,,0.04,Acu-Link.com,2013-04-01 10:14:00,
2013-04-01 06:29:00,41.5,41.2,29.54,West,270,3.7,-999.0,99,-99.99,,,0.04,Acu-Link.com,2013-04-01 10:29:00,
2013-04-01 06:45:00,41.5,41.2,29.54,SW,225,1.7,-999.0,99,-99.99,,,0.04,Acu-Link.com,2013-04-01 10:45:00,
2013-04-01 07:00:00,41.5,41.2,29.56,West,270,2.2,-999.0,99,-99.99,,,0.04,Acu-Link.com,2013-04-01 11:00:00,
2013-04-01 07:15:00,41.4,41.1,29.55,WNW,292,2.7,-999.0,99,-99.99,,,0.04,Acu-Link.com,2013-04-01 11:15:00,
2013-04-01 07:30:00,41.4,41.1,29.54,SE,135,4.7,-999.0,99,-99.99,,,0.04,Acu-Link.com,2013-04-01 11:30:00,
2013-04-01 07:45:00,41.7,41.4,29.55,ESE,112,2.2,-999.0,99,-99.99,,,0.04,Acu-Link.com,2013-04-01 11:45:00,
2013-04-01 08:01:00,42.1,41.6,29.54,SSW,202,2.7,-999.0,98,-99.99,,,0.04,Acu-Link.com,2013-04-01 12:01:00,
2013-04-01 08:31:00,43.5,41.6,29.54,WSW,247,3.7,-999.0,93,-99.99,,,0.04,Acu-Link.com,2013-04-01 12:31:00,
2013-04-01 09:17:00,46.0,42.9,29.54,SE,135,3.7,-999.0,89,-99.99,,,0.04,Acu-Link.com,2013-04-01 13:17:00,
2013-04-01 09:32:00,45.3,41.4,29.56,SSW,202,2.2,-999.0,86,-99.99,,,0.04,Acu-Link.com,2013-04-01 13:32:00,
2013-04-01 09:47:00,46.6,42.3,29.54,WSW,247,4.2,-999.0,85,-99.99,,,0.04,Acu-Link.com,2013-04-01 13:47:00,
2013-04-01 10:18:00,48.2,42.0,29.55,SSW,202,2.2,-999.0,79,-99.99,,,0.04,Acu-Link.com,2013-04-01 14:18:00,
2013-04-01 10:33:00,49.6,42.4,29.54,East,90,2.7,-999.0,76,-99.99,,,0.04,Acu-Link.com,2013-04-01 14:33:00,
2013-04-01 10:48:00,51.1,43.5,29.53,WSW,247,1.7,-999.0,75,-99.99,,,0.04,Acu-Link.com,2013-04-01 14:48:00,
2013-04-01 11:04:00,51.8,42.0,29.53,West,270,3.7,-999.0,69,-99.99,,,0.04,Acu-Link.com,2013-04-01 15:04:00,
2013-04-01 11:19:00,53.2,42.5,29.52,SSW,202,4.7,-999.0,67,-99.99,,,0.04,Acu-Link.com,2013-04-01 15:19:00,
2013-04-01 11:34:00,53.6,42.1,29.53,South,180,4.7,-999.0,65,-99.99,,,0.04,Acu-Link.com,2013-04-01 15:34:00,
2013-04-01 12:05:00,56.8,41.7,29.50,ESE,112,1.7,-999.0,57,-99.99,,,0.04,Acu-Link.com,2013-04-01 16:05:00,
2013-04-01 12:20:00,59.2,43.0,29.49,SW,225,5.3,-999.0,55,-99.99,,,0.04,Acu-Link.com,2013-04-01 16:20:00,
2013-04-01 12:35:00,61.3,42.5,29.48,SSW,202,2.2,-999.0,50,-99.99,,,0.04,Acu-Link.com,2013-04-01 16:35:00,
2013-04-01 12:50:00,59.9,40.7,29.48,West,270,8.3,-999.0,49,-99.99,,,0.04,Acu-Link.com,2013-04-01 16:50:00,
2013-04-01 13:05:00,59.4,40.2,29.48,South,180,6.8,-999.0,49,-99.99,,,0.04,Acu-Link.com,2013-04-01 17:05:00,
2013-04-01 13:21:00,60.6,41.3,29.47,SW,225,5.3,-999.0,49,-99.99,,,0.04,Acu-Link.com,2013-04-01 17:21:00,
2013-04-01 13:36:00,58.8,40.7,29.47,South,180,2.2,-999.0,51,-99.99,,,0.04,Acu-Link.com,2013-04-01 17:36:00,
2013-04-01 13:51:00,59.5,39.8,29.46,SSW,202,4.7,-999.0,48,-99.99,,,0.04,Acu-Link.com,2013-04-01 17:51:00,
2013-04-01 14:06:00,59.0,39.9,29.45,West,270,4.7,-999.0,49,-99.99,,,0.04,Acu-Link.com,2013-04-01 18:06:00,
2013-04-01 14:22:00,58.8,41.2,29.45,ESE,112,6.8,-999.0,52,-99.99,,,0.04,Acu-Link.com,2013-04-01 18:22:00,
2013-04-01 14:37:00,58.5,42.9,29.45,West,270,5.3,-999.0,56,-99.99,,,0.04,Acu-Link.com,2013-04-01 18:37:00,
2013-04-01 14:52:00,58.8,43.6,29.44,SW,225,3.7,-999.0,57,-99.99,,,0.04,Acu-Link.com,2013-04-01 18:52:00,
2013-04-01 15:07:00,58.8,41.7,29.43,West,270,6.8,-999.0,53,-99.99,,,0.04,Acu-Link.com,2013-04-01 19:07:00,
2013-04-01 15:23:00,60.3,42.1,29.42,South,180,5.3,-999.0,51,-99.99,,,0.04,Acu-Link.com,2013-04-01 19:23:00,
2013-04-01 15:38:00,59.9,40.7,29.43,SSW,202,2.2,-999.0,49,-99.99,,,0.04,Acu-Link.com,2013-04-01 19:38:00,
2013-04-01 15:53:00,56.1,41.5,29.44,NNE,22,4.7,-999.0,58,-99.99,,,0.04,Acu-Link.com,2013-04-01 19:53:00,
2013-04-01 16:08:00,48.6,45.5,29.46,WNW,292,11.9,-999.0,89,-99.99,,,0.07,Acu-Link.com,2013-04-01 20:08:00,
2013-04-01 16:24:00,46.2,43.4,29.47,NNW,337,4.7,-999.0,90,-99.99,,,0.11,Acu-Link.com,2013-04-01 20:24:00,
2013-04-01 16:39:00,45.1,43.2,29.48,SW,225,4.2,-999.0,93,-99.99,,,0.13,Acu-Link.com,2013-04-01 20:39:00,
2013-04-01 16:54:00,45.1,42.9,29.49,SSW,202,5.3,-999.0,92,-99.99,,,0.16,Acu-Link.com,2013-04-01 20:54:00,
2013-04-01 17:09:00,45.7,44.1,29.50,South,180,5.3,-999.0,94,-99.99,,,0.16,Acu-Link.com,2013-04-01 21:09:00,
2013-04-01 17:25:00,44.2,40.3,29.53,SE,135,11.4,-999.0,86,-99.99,,,0.16,Acu-Link.com,2013-04-01 21:25:00,
2013-04-01 17:40:00,42.8,38.0,29.54,SSW,202,7.3,-999.0,83,-99.99,,,0.16,Acu-Link.com,2013-04-01 21:40:00,
2013-04-01 17:55:00,41.9,34.2,29.54,West,270,2.7,-999.0,74,-99.99,,,0.16,Acu-Link.com,2013-04-01 21:55:00,
2013-04-01 18:10:00,40.6,31.6,29.56,South,180,5.3,-999.0,70,-99.99,,,0.16,Acu-Link.com,2013-04-01 22:10:00,
2013-04-01 18:25:00,40.3,31.7,29.58,SW,225,5.8,-999.0,71,-99.99,,,0.16,Acu-Link.com,2013-04-01 22:25:00,
2013-04-01 18:40:00,39.6,32.3,29.57,SSW,202,4.7,-999.0,75,-99.99,,,0.16,Acu-Link.com,2013-04-01 22:40:00,
2013-04-01 18:56:00,39.0,31.1,29.57,SSW,202,4.7,-999.0,73,-99.99,,,0.16,Acu-Link.com,2013-04-01 22:56:00,
2013-04-01 19:11:00,38.8,29.2,29.58,NE,45,3.7,-999.0,68,-99.99,,,0.16,Acu-Link.com,2013-04-01 23:11:00,
2013-04-01 19:26:00,38.8,28.1,29.59,SSE,157,5.8,-999.0,65,-99.99,,,0.16,Acu-Link.com,2013-04-01 23:26:00,
2013-04-01 19:41:00,38.7,26.8,29.58,SSE,157,6.8,-999.0,62,-99.99,,,0.16,Acu-Link.com,2013-04-01 23:41:00,
2013-04-01 19:57:00,38.5,25.4,29.59,ESE,112,5.3,-999.0,59,-99.99,,,0.16,Acu-Link.com,2013-04-01 23:57:00,
2013-04-01 20:12:00,38.1,24.6,29.61,East,90,4.7,-999.0,58,-99.99,,,0.16,Acu-Link.com,2013-04-02 00:12:00,
2013-04-01 20:27:00,37.9,21.9,29.62,ENE,67,3.7,-999.0,52,-99.99,,,0.16,Acu-Link.com,2013-04-02 00:27:00,
2013-04-01 20:42:00,37.4,18.0,29.63,NW,315,5.8,-999.0,45,-99.99,,,0.16,Acu-Link.com,2013-04-02 00:42:00,
2013-04-01 20:57:00,36.9,17.6,29.64,ESE,112,3.2,-999.0,45,-99.99,,,0.16,Acu-Link.com,2013-04-02 00:57:00,
2013-04-01 21:13:00,36.0,18.2,29.64,West,270,4.2,-999.0,48,-99.99,,,0.16,Acu-Link.com,2013-04-02 01:13:00,
2013-04-01 21:28:00,36.0,16.7,29.64,South,180,3.7,-999.0,45,-99.99,,,0.16,Acu-Link.com,2013-04-02 01:28:00,
2013-04-01 21:43:00,35.2,17.0,29.66,East,90,1.7,-999.0,47,-99.99,,,0.16,Acu-Link.com,2013-04-02 01:43:00,
2013-04-01 21:58:00,35.4,13.5,29.66,NNE,22,4.7,-999.0,40,-99.99,,,0.16,Acu-Link.com,2013-04-02 01:58:00,
2013-04-01 22:13:00,35.1,13.2,29.67,NE,45,6.3,-999.0,40,-99.99,,,0.16,Acu-Link.com,2013-04-02 02:13:00,
2013-04-01 22:29:00,34.7,13.4,29.68,SSE,157,6.3,-999.0,41,-99.99,,,0.16,Acu-Link.com,2013-04-02 02:29:00,
2013-04-01 22:44:00,34.2,13.0,29.69,NNE,22,4.7,-999.0,41,-99.99,,,0.16,Acu-Link.com,2013-04-02 02:44:00,
2013-04-01 22:59:00,33.8,13.2,29.69,East,90,5.3,-999.0,42,-99.99,,,0.16,Acu-Link.com,2013-04-02 02:59:00,
2013-04-01 23:14:00,33.4,13.9,29.70,NNE,22,2.2,-999.0,44,-99.99,,,0.16,Acu-Link.com,2013-04-02 03:14:00,
2013-04-01 23:29:00,33.1,13.6,29.71,NNW,337,2.2,-999.0,44,-99.99,,,0.16,Acu-Link.com,2013-04-02 03:29:00,
2013-04-01 23:45:00,32.9,13.4,29.71,NNE,22,3.7,-999.0,44,-99.99,,,0.16,Acu-Link.com,2013-04-02 03:45:00,